HDGA4: War Eagle Creek At Hindsville, AR

                                SHEF ID:       HDGA4     War Eagle Crk nr Hindsville,AR
STATION TYPE:

STAGE RIV-FLOW WTR-TEMP CONDUCT BAT-LOAD
ft cfs F umho/cm volt
Ccp-Rev Ccp-Rev Ccp-Rev Ccp-Rev Ccp-Rev
(America/Chicago)
05/06 00:00 3.09 610 63.39 ---- 12.57
05/06 01:00 3.03 589 63.14 ---- 12.57
05/06 02:00 2.97 568 62.92 ---- 12.57
05/06 03:00 2.91 547 62.78 ---- 12.56
05/06 04:00 2.85 527 62.65 ---- 12.56
05/06 05:00 2.80 511 62.56 ---- 12.55
05/06 06:00 2.76 497 62.46 ---- 12.55
05/06 07:00 2.71 481 62.24 ---- 12.55
05/06 08:00 2.67 469 62.04 ---- 12.55
05/06 09:00 2.64 459 61.83 ---- 12.62
05/06 10:00 2.61 450 61.74 ---- 12.70
05/06 11:00 2.58 441 61.77 ---- 12.90
05/06 12:00 2.55 432 61.88 ---- 13.18
05/06 13:00 2.52 423 62.01 ---- 13.22
05/06 14:00 2.49 414 62.33 ---- 13.69
05/06 15:00 2.47 408 62.78 ---- 13.72
05/06 16:00 2.44 399 63.00 ---- 13.31
05/06 17:00 2.41 390 63.14 ---- 13.23
05/06 18:00 2.39 385 63.14 ---- 13.13
05/06 19:00 2.37 379 63.18 ---- 13.01
05/06 20:00 2.34 370 63.09 ---- 12.86
05/06 21:00 2.32 365 62.83 ---- 12.81
05/06 22:00 2.30 359 62.60 ---- 12.78
05/06 23:00 2.28 354 62.24 ---- 12.76
Data processed at Thu 07May2026 04:13 GMT

NOTICE: If you are parsing this page

Please convert to using our Data API. Starting early 2026 we will be migrating to: https://water.usace.army.mil with modern pages rendered in JavaScript. When this migration completes you will no longer be able to scrape this page! CWMSDataAPI (CDA)

Timeseries IDs (TSIDs)

TSIDs used from left to right in the data table
HIND.Stage.Inst.1Hour.0.Ccp-Rev
HIND.Flow.Inst.1Hour.0.Ccp-Rev
HIND.Temp-Water.Inst.1Hour.0.Ccp-Rev
HIND.Cond.Inst.1Hour.0.Ccp-Rev
HIND.Volt-Battery Load.Inst.1Hour.0.Ccp-Rev

                            

All information presented herein is the property of the government of the United States of America and may be revised or deleted at any time without prior notice. Dissemination of this information without the expressed written consent of the Public Affairs Office, Tulsa District U.S. Army Corps of Engineers is strictly prohibited. These data are gathered electronically and, as presented, have NOT undergone any form of quality control. These data are NOT guaranteed to be valid or correct.